Terminal Aerodrome Forecast
Issued by NWS Topeka, KS

Home | Current Version | Previous Version | Text Only | Print | Product List | Glossary Off
Versions: 1 2 3 4 5 6 7 8 9 10 11 12 13 14 15 16 17 18 19 20

466
FTUS43 KTOP 200922 AAC
TAFTOP
TAF AMD
KTOP 200922Z 2009/2106 18006KT P6SM SCT050 BKN150
     FM200930 36015G25KT P6SM VCTS SCT050CB BKN150
     FM201400 17009KT P6SM SCT200=

USA.gov is the U.S. government's official web portal to all federal, state and local government web resources and services.